sensor_id;sensor_type;location;lat;lon;timestamp;P1;durP1;ratioP1;P2;durP2;ratioP2
4422;SDS011;2224;49.814;8.650;2023-04-29T00:02:13;11.93;;;10.73;;
4422;SDS011;2224;49.814;8.650;2023-04-29T00:04:38;11.07;;;9.97;;
4422;SDS011;2224;49.814;8.650;2023-04-29T00:07:04;13.30;;;9.70;;
4422;SDS011;2224;49.814;8.650;2023-04-29T00:09:29;13.10;;;10.00;;
4422;SDS011;2224;49.814;8.650;2023-04-29T00:11:54;10.57;;;9.50;;
4422;SDS011;2224;49.814;8.650;2023-04-29T00:14:20;11.20;;;9.57;;
4422;SDS011;2224;49.814;8.650;2023-04-29T00:16:45;12.90;;;9.13;;
4422;SDS011;2224;49.814;8.650;2023-04-29T00:19:10;12.40;;;10.53;;
4422;SDS011;2224;49.814;8.650;2023-04-29T00:21:36;11.13;;;9.93;;
4422;SDS011;2224;49.814;8.650;2023-04-29T00:24:02;11.70;;;10.50;;
4422;SDS011;2224;49.814;8.650;2023-04-29T00:26:27;11.80;;;10.30;;
4422;SDS011;2224;49.814;8.650;2023-04-29T00:28:53;10.60;;;8.80;;
4422;SDS011;2224;49.814;8.650;2023-04-29T00:31:18;10.50;;;9.07;;
4422;SDS011;2224;49.814;8.650;2023-04-29T00:33:43;11.17;;;9.93;;
4422;SDS011;2224;49.814;8.650;2023-04-29T00:36:09;10.20;;;9.20;;
4422;SDS011;2224;49.814;8.650;2023-04-29T00:38:35;13.50;;;10.77;;
4422;SDS011;2224;49.814;8.650;2023-04-29T00:41:01;11.27;;;10.03;;
4422;SDS011;2224;49.814;8.650;2023-04-29T00:43:26;10.80;;;9.50;;
4422;SDS011;2224;49.814;8.650;2023-04-29T00:45:52;11.70;;;10.50;;
4422;SDS011;2224;49.814;8.650;2023-04-29T00:48:18;11.70;;;10.50;;
4422;SDS011;2224;49.814;8.650;2023-04-29T00:50:43;10.73;;;9.70;;
4422;SDS011;2224;49.814;8.650;2023-04-29T00:53:09;14.73;;;10.97;;
4422;SDS011;2224;49.814;8.650;2023-04-29T00:55:37;11.00;;;10.00;;
4422;SDS011;2224;49.814;8.650;2023-04-29T00:58:02;10.97;;;9.87;;
4422;SDS011;2224;49.814;8.650;2023-04-29T01:00:28;11.93;;;10.73;;
4422;SDS011;2224;49.814;8.650;2023-04-29T01:02:54;10.10;;;8.83;;
4422;SDS011;2224;49.814;8.650;2023-04-29T01:05:21;12.50;;;10.20;;
4422;SDS011;2224;49.814;8.650;2023-04-29T01:10:34;11.47;;;10.37;;
4422;SDS011;2224;49.814;8.650;2023-04-29T01:13:13;11.03;;;9.87;;
4422;SDS011;2224;49.814;8.650;2023-04-29T01:15:46;11.70;;;10.50;;
4422;SDS011;2224;49.814;8.650;2023-04-29T01:18:21;12.00;;;10.50;;
4422;SDS011;2224;49.814;8.650;2023-04-29T01:20:50;12.10;;;10.90;;
4422;SDS011;2224;49.814;8.650;2023-04-29T01:23:15;15.10;;;10.63;;
4422;SDS011;2224;49.814;8.650;2023-04-29T01:25:41;11.10;;;9.93;;
4422;SDS011;2224;49.814;8.650;2023-04-29T01:33:31;12.10;;;11.10;;
4422;SDS011;2224;49.814;8.650;2023-04-29T01:38:59;10.33;;;9.33;;
4422;SDS011;2224;49.814;8.650;2023-04-29T01:41:30;10.67;;;9.50;;
4422;SDS011;2224;49.814;8.650;2023-04-29T01:44:00;11.47;;;10.03;;
4422;SDS011;2224;49.814;8.650;2023-04-29T01:46:28;14.00;;;10.10;;
4422;SDS011;2224;49.814;8.650;2023-04-29T01:48:53;11.53;;;10.30;;
4422;SDS011;2224;49.814;8.650;2023-04-29T01:51:19;11.17;;;10.07;;
4422;SDS011;2224;49.814;8.650;2023-04-29T01:53:45;10.80;;;9.70;;
4422;SDS011;2224;49.814;8.650;2023-04-29T01:56:10;12.00;;;10.13;;
4422;SDS011;2224;49.814;8.650;2023-04-29T01:58:35;9.93;;;8.87;;
4422;SDS011;2224;49.814;8.650;2023-04-29T02:01:01;10.83;;;9.50;;
4422;SDS011;2224;49.814;8.650;2023-04-29T02:03:26;11.23;;;9.10;;
4422;SDS011;2224;49.814;8.650;2023-04-29T02:05:51;10.27;;;9.27;;
4422;SDS011;2224;49.814;8.650;2023-04-29T02:08:17;10.03;;;9.10;;
4422;SDS011;2224;49.814;8.650;2023-04-29T02:10:50;11.13;;;9.80;;
4422;SDS011;2224;49.814;8.650;2023-04-29T02:13:17;10.87;;;9.83;;
4422;SDS011;2224;49.814;8.650;2023-04-29T02:15:42;10.33;;;9.30;;
4422;SDS011;2224;49.814;8.650;2023-04-29T02:18:07;11.47;;;10.33;;
4422;SDS011;2224;49.814;8.650;2023-04-29T02:20:33;12.67;;;11.37;;
4422;SDS011;2224;49.814;8.650;2023-04-29T02:22:58;11.03;;;9.93;;
4422;SDS011;2224;49.814;8.650;2023-04-29T02:25:23;11.83;;;10.63;;
4422;SDS011;2224;49.814;8.650;2023-04-29T02:27:49;10.00;;;9.07;;
4422;SDS011;2224;49.814;8.650;2023-04-29T02:30:14;10.33;;;9.33;;
4422;SDS011;2224;49.814;8.650;2023-04-29T02:32:39;8.53;;;7.43;;
4422;SDS011;2224;49.814;8.650;2023-04-29T02:35:05;7.70;;;6.90;;
4422;SDS011;2224;49.814;8.650;2023-04-29T02:37:31;8.27;;;6.87;;
4422;SDS011;2224;49.814;8.650;2023-04-29T02:39:56;7.17;;;6.57;;
4422;SDS011;2224;49.814;8.650;2023-04-29T02:42:22;8.00;;;7.30;;
4422;SDS011;2224;49.814;8.650;2023-04-29T02:44:47;7.17;;;6.57;;
4422;SDS011;2224;49.814;8.650;2023-04-29T02:47:12;7.33;;;6.47;;
4422;SDS011;2224;49.814;8.650;2023-04-29T02:49:39;7.67;;;6.90;;
4422;SDS011;2224;49.814;8.650;2023-04-29T02:52:04;9.33;;;8.53;;
4422;SDS011;2224;49.814;8.650;2023-04-29T02:54:29;8.87;;;8.07;;
4422;SDS011;2224;49.814;8.650;2023-04-29T02:56:55;8.10;;;7.40;;
4422;SDS011;2224;49.814;8.650;2023-04-29T02:59:21;8.03;;;7.27;;
4422;SDS011;2224;49.814;8.650;2023-04-29T03:01:46;7.93;;;6.60;;
4422;SDS011;2224;49.814;8.650;2023-04-29T03:04:12;7.90;;;7.10;;
4422;SDS011;2224;49.814;8.650;2023-04-29T03:06:37;7.50;;;6.73;;
4422;SDS011;2224;49.814;8.650;2023-04-29T03:09:02;8.37;;;7.00;;
4422;SDS011;2224;49.814;8.650;2023-04-29T03:11:28;7.57;;;6.77;;
4422;SDS011;2224;49.814;8.650;2023-04-29T03:13:53;6.60;;;6.00;;
4422;SDS011;2224;49.814;8.650;2023-04-29T03:16:19;7.20;;;6.50;;
4422;SDS011;2224;49.814;8.650;2023-04-29T03:18:45;7.97;;;7.27;;
4422;SDS011;2224;49.814;8.650;2023-04-29T03:21:10;7.80;;;7.10;;
4422;SDS011;2224;49.814;8.650;2023-04-29T03:23:36;7.93;;;7.20;;
4422;SDS011;2224;49.814;8.650;2023-04-29T03:26:03;8.33;;;7.57;;
4422;SDS011;2224;49.814;8.650;2023-04-29T03:28:29;8.20;;;7.50;;
4422;SDS011;2224;49.814;8.650;2023-04-29T03:30:54;8.03;;;7.23;;
4422;SDS011;2224;49.814;8.650;2023-04-29T03:33:20;8.27;;;7.47;;
4422;SDS011;2224;49.814;8.650;2023-04-29T03:35:46;8.50;;;7.70;;
4422;SDS011;2224;49.814;8.650;2023-04-29T03:38:11;7.07;;;6.37;;
4422;SDS011;2224;49.814;8.650;2023-04-29T03:40:36;7.30;;;6.70;;
4422;SDS011;2224;49.814;8.650;2023-04-29T03:43:02;7.93;;;7.10;;
4422;SDS011;2224;49.814;8.650;2023-04-29T03:45:27;7.60;;;6.90;;
4422;SDS011;2224;49.814;8.650;2023-04-29T03:47:53;7.63;;;6.93;;
4422;SDS011;2224;49.814;8.650;2023-04-29T03:50:18;7.50;;;6.90;;
4422;SDS011;2224;49.814;8.650;2023-04-29T03:52:44;6.97;;;6.20;;
4422;SDS011;2224;49.814;8.650;2023-04-29T03:55:09;7.77;;;6.97;;
4422;SDS011;2224;49.814;8.650;2023-04-29T03:57:35;7.20;;;6.60;;
4422;SDS011;2224;49.814;8.650;2023-04-29T04:00:00;7.07;;;6.47;;
4422;SDS011;2224;49.814;8.650;2023-04-29T04:02:26;7.70;;;6.90;;
4422;SDS011;2224;49.814;8.650;2023-04-29T04:04:51;8.97;;;7.33;;
4422;SDS011;2224;49.814;8.650;2023-04-29T04:07:19;8.50;;;7.73;;
4422;SDS011;2224;49.814;8.650;2023-04-29T04:09:44;7.23;;;6.53;;
4422;SDS011;2224;49.814;8.650;2023-04-29T04:12:10;7.07;;;6.47;;
4422;SDS011;2224;49.814;8.650;2023-04-29T04:14:35;6.23;;;5.70;;
4422;SDS011;2224;49.814;8.650;2023-04-29T04:17:00;9.20;;;6.20;;
4422;SDS011;2224;49.814;8.650;2023-04-29T04:19:25;7.10;;;6.40;;
4422;SDS011;2224;49.814;8.650;2023-04-29T04:21:53;6.63;;;6.10;;
4422;SDS011;2224;49.814;8.650;2023-04-29T04:24:19;6.57;;;5.97;;
4422;SDS011;2224;49.814;8.650;2023-04-29T04:26:44;6.50;;;6.00;;
4422;SDS011;2224;49.814;8.650;2023-04-29T04:29:09;5.23;;;4.77;;
4422;SDS011;2224;49.814;8.650;2023-04-29T04:31:35;6.37;;;5.50;;
4422;SDS011;2224;49.814;8.650;2023-04-29T04:34:00;7.50;;;5.50;;
4422;SDS011;2224;49.814;8.650;2023-04-29T04:36:26;5.43;;;4.63;;
4422;SDS011;2224;49.814;8.650;2023-04-29T04:38:52;9.83;;;5.70;;
4422;SDS011;2224;49.814;8.650;2023-04-29T04:41:17;5.30;;;4.90;;
4422;SDS011;2224;49.814;8.650;2023-04-29T04:43:43;5.90;;;5.30;;
4422;SDS011;2224;49.814;8.650;2023-04-29T04:46:12;6.03;;;5.53;;
4422;SDS011;2224;49.814;8.650;2023-04-29T04:48:38;5.80;;;5.33;;
4422;SDS011;2224;49.814;8.650;2023-04-29T04:51:10;5.57;;;5.07;;
4422;SDS011;2224;49.814;8.650;2023-04-29T04:53:36;5.97;;;5.47;;
4422;SDS011;2224;49.814;8.650;2023-04-29T04:56:01;5.60;;;4.90;;
4422;SDS011;2224;49.814;8.650;2023-04-29T04:58:27;6.27;;;5.77;;
4422;SDS011;2224;49.814;8.650;2023-04-29T05:00:52;5.77;;;5.17;;
4422;SDS011;2224;49.814;8.650;2023-04-29T05:03:17;5.73;;;4.80;;
4422;SDS011;2224;49.814;8.650;2023-04-29T05:05:43;6.43;;;4.90;;
4422;SDS011;2224;49.814;8.650;2023-04-29T05:08:08;6.37;;;5.00;;
4422;SDS011;2224;49.814;8.650;2023-04-29T05:10:36;6.57;;;5.97;;
4422;SDS011;2224;49.814;8.650;2023-04-29T05:13:02;6.00;;;5.50;;
4422;SDS011;2224;49.814;8.650;2023-04-29T05:15:27;5.47;;;4.93;;
4422;SDS011;2224;49.814;8.650;2023-04-29T05:17:53;6.63;;;5.40;;
4422;SDS011;2224;49.814;8.650;2023-04-29T05:20:18;6.27;;;5.67;;
4422;SDS011;2224;49.814;8.650;2023-04-29T05:22:45;6.60;;;6.00;;
4422;SDS011;2224;49.814;8.650;2023-04-29T05:25:10;7.23;;;6.53;;
4422;SDS011;2224;49.814;8.650;2023-04-29T05:27:36;9.83;;;6.13;;
4422;SDS011;2224;49.814;8.650;2023-04-29T05:30:01;6.40;;;5.80;;
4422;SDS011;2224;49.814;8.650;2023-04-29T05:32:26;9.77;;;6.80;;
4422;SDS011;2224;49.814;8.650;2023-04-29T05:34:52;7.57;;;6.87;;
4422;SDS011;2224;49.814;8.650;2023-04-29T05:37:17;7.87;;;7.07;;
4422;SDS011;2224;49.814;8.650;2023-04-29T05:39:42;7.07;;;6.47;;
4422;SDS011;2224;49.814;8.650;2023-04-29T05:42:08;8.40;;;7.60;;
4422;SDS011;2224;49.814;8.650;2023-04-29T05:44:33;7.40;;;6.70;;
4422;SDS011;2224;49.814;8.650;2023-04-29T05:46:59;6.37;;;5.80;;
4422;SDS011;2224;49.814;8.650;2023-04-29T05:49:24;6.90;;;6.20;;
4422;SDS011;2224;49.814;8.650;2023-04-29T05:51:49;7.63;;;6.93;;
4422;SDS011;2224;49.814;8.650;2023-04-29T05:54:15;8.33;;;7.60;;
4422;SDS011;2224;49.814;8.650;2023-04-29T05:56:40;8.53;;;7.73;;
4422;SDS011;2224;49.814;8.650;2023-04-29T05:59:05;10.40;;;8.93;;
4422;SDS011;2224;49.814;8.650;2023-04-29T06:01:31;10.60;;;9.60;;
4422;SDS011;2224;49.814;8.650;2023-04-29T06:03:56;11.30;;;10.10;;
4422;SDS011;2224;49.814;8.650;2023-04-29T06:06:22;13.43;;;11.60;;
4422;SDS011;2224;49.814;8.650;2023-04-29T06:08:47;14.17;;;11.60;;
4422;SDS011;2224;49.814;8.650;2023-04-29T06:11:13;14.43;;;12.50;;
4422;SDS011;2224;49.814;8.650;2023-04-29T06:13:38;13.73;;;11.47;;
4422;SDS011;2224;49.814;8.650;2023-04-29T06:16:04;12.53;;;11.30;;
4422;SDS011;2224;49.814;8.650;2023-04-29T06:18:29;14.40;;;12.33;;
4422;SDS011;2224;49.814;8.650;2023-04-29T06:20:55;15.47;;;13.63;;
4422;SDS011;2224;49.814;8.650;2023-04-29T06:23:20;16.03;;;13.80;;
4422;SDS011;2224;49.814;8.650;2023-04-29T06:25:45;14.57;;;12.40;;
4422;SDS011;2224;49.814;8.650;2023-04-29T06:28:11;15.60;;;12.20;;
4422;SDS011;2224;49.814;8.650;2023-04-29T06:30:36;15.90;;;12.97;;
4422;SDS011;2224;49.814;8.650;2023-04-29T06:33:01;17.97;;;14.17;;
4422;SDS011;2224;49.814;8.650;2023-04-29T06:35:27;16.53;;;12.80;;
4422;SDS011;2224;49.814;8.650;2023-04-29T06:37:52;14.43;;;12.37;;
4422;SDS011;2224;49.814;8.650;2023-04-29T06:40:18;17.53;;;12.83;;
4422;SDS011;2224;49.814;8.650;2023-04-29T06:42:43;15.80;;;11.90;;
4422;SDS011;2224;49.814;8.650;2023-04-29T06:45:08;15.70;;;12.33;;
4422;SDS011;2224;49.814;8.650;2023-04-29T06:47:34;16.07;;;11.53;;
4422;SDS011;2224;49.814;8.650;2023-04-29T06:49:59;15.90;;;12.63;;
4422;SDS011;2224;49.814;8.650;2023-04-29T06:52:25;16.00;;;12.53;;
4422;SDS011;2224;49.814;8.650;2023-04-29T06:54:50;15.43;;;11.53;;
4422;SDS011;2224;49.814;8.650;2023-04-29T06:57:15;11.50;;;10.30;;
4422;SDS011;2224;49.814;8.650;2023-04-29T06:59:41;13.70;;;11.27;;
4422;SDS011;2224;49.814;8.650;2023-04-29T07:02:06;14.13;;;10.17;;
4422;SDS011;2224;49.814;8.650;2023-04-29T07:04:31;11.20;;;9.30;;
4422;SDS011;2224;49.814;8.650;2023-04-29T07:06:57;11.60;;;9.13;;
4422;SDS011;2224;49.814;8.650;2023-04-29T07:09:23;13.87;;;8.70;;
4422;SDS011;2224;49.814;8.650;2023-04-29T07:11:50;11.13;;;8.73;;
4422;SDS011;2224;49.814;8.650;2023-04-29T07:14:15;11.13;;;9.37;;
4422;SDS011;2224;49.814;8.650;2023-04-29T07:16:41;12.20;;;8.03;;
4422;SDS011;2224;49.814;8.650;2023-04-29T07:19:06;10.10;;;9.10;;
4422;SDS011;2224;49.814;8.650;2023-04-29T07:21:31;10.83;;;8.73;;
4422;SDS011;2224;49.814;8.650;2023-04-29T07:23:57;10.60;;;8.70;;
4422;SDS011;2224;49.814;8.650;2023-04-29T07:26:25;10.37;;;8.13;;
4422;SDS011;2224;49.814;8.650;2023-04-29T07:28:50;9.67;;;7.77;;
4422;SDS011;2224;49.814;8.650;2023-04-29T07:31:15;8.50;;;7.60;;
4422;SDS011;2224;49.814;8.650;2023-04-29T07:33:41;9.00;;;7.27;;
4422;SDS011;2224;49.814;8.650;2023-04-29T07:36:06;8.80;;;7.27;;
4422;SDS011;2224;49.814;8.650;2023-04-29T07:38:32;9.00;;;6.80;;
4422;SDS011;2224;49.814;8.650;2023-04-29T07:40:58;7.97;;;6.43;;
4422;SDS011;2224;49.814;8.650;2023-04-29T07:43:23;9.20;;;6.30;;
4422;SDS011;2224;49.814;8.650;2023-04-29T07:45:48;8.80;;;6.30;;
4422;SDS011;2224;49.814;8.650;2023-04-29T07:48:14;6.23;;;5.60;;
4422;SDS011;2224;49.814;8.650;2023-04-29T07:50:39;7.00;;;6.30;;
4422;SDS011;2224;49.814;8.650;2023-04-29T07:53:05;9.47;;;6.60;;
4422;SDS011;2224;49.814;8.650;2023-04-29T07:55:30;7.83;;;6.33;;
4422;SDS011;2224;49.814;8.650;2023-04-29T07:57:56;6.63;;;5.43;;
4422;SDS011;2224;49.814;8.650;2023-04-29T08:00:22;11.03;;;7.60;;
4422;SDS011;2224;49.814;8.650;2023-04-29T08:02:51;7.50;;;6.20;;
4422;SDS011;2224;49.814;8.650;2023-04-29T08:05:20;6.33;;;5.70;;
4422;SDS011;2224;49.814;8.650;2023-04-29T08:07:49;8.67;;;6.97;;
4422;SDS011;2224;49.814;8.650;2023-04-29T08:10:15;6.53;;;5.80;;
4422;SDS011;2224;49.814;8.650;2023-04-29T08:12:44;7.00;;;6.07;;
4422;SDS011;2224;49.814;8.650;2023-04-29T08:15:09;7.90;;;6.60;;
4422;SDS011;2224;49.814;8.650;2023-04-29T08:17:35;8.80;;;6.30;;
4422;SDS011;2224;49.814;8.650;2023-04-29T08:20:00;7.20;;;6.03;;
4422;SDS011;2224;49.814;8.650;2023-04-29T08:22:26;8.23;;;5.70;;
4422;SDS011;2224;49.814;8.650;2023-04-29T08:24:51;8.20;;;6.57;;
4422;SDS011;2224;49.814;8.650;2023-04-29T08:27:16;6.20;;;5.60;;
4422;SDS011;2224;49.814;8.650;2023-04-29T08:29:42;6.53;;;5.80;;
4422;SDS011;2224;49.814;8.650;2023-04-29T08:32:07;6.37;;;5.40;;
4422;SDS011;2224;49.814;8.650;2023-04-29T08:34:33;4.93;;;4.43;;
4422;SDS011;2224;49.814;8.650;2023-04-29T08:37:00;5.43;;;4.90;;
4422;SDS011;2224;49.814;8.650;2023-04-29T08:39:27;4.77;;;4.30;;
4422;SDS011;2224;49.814;8.650;2023-04-29T08:41:52;8.33;;;5.30;;
4422;SDS011;2224;49.814;8.650;2023-04-29T08:44:20;5.20;;;4.70;;
4422;SDS011;2224;49.814;8.650;2023-04-29T08:46:45;5.53;;;4.90;;
4422;SDS011;2224;49.814;8.650;2023-04-29T08:49:11;5.20;;;4.70;;
4422;SDS011;2224;49.814;8.650;2023-04-29T08:51:37;5.63;;;5.07;;
4422;SDS011;2224;49.814;8.650;2023-04-29T08:54:02;4.13;;;3.73;;
4422;SDS011;2224;49.814;8.650;2023-04-29T08:56:29;5.23;;;4.67;;
4422;SDS011;2224;49.814;8.650;2023-04-29T08:58:55;5.53;;;4.60;;
4422;SDS011;2224;49.814;8.650;2023-04-29T09:01:22;6.10;;;5.10;;
4422;SDS011;2224;49.814;8.650;2023-04-29T09:03:51;5.70;;;4.93;;
4422;SDS011;2224;49.814;8.650;2023-04-29T09:06:18;5.53;;;4.90;;
4422;SDS011;2224;49.814;8.650;2023-04-29T09:08:45;5.30;;;4.70;;
4422;SDS011;2224;49.814;8.650;2023-04-29T09:11:10;5.77;;;5.23;;
4422;SDS011;2224;49.814;8.650;2023-04-29T09:13:37;6.43;;;5.23;;
4422;SDS011;2224;49.814;8.650;2023-04-29T09:16:02;4.60;;;4.20;;
4422;SDS011;2224;49.814;8.650;2023-04-29T09:21:15;5.73;;;5.17;;
4422;SDS011;2224;49.814;8.650;2023-04-29T09:23:41;6.20;;;5.40;;
4422;SDS011;2224;49.814;8.650;2023-04-29T09:26:06;6.23;;;5.53;;
4422;SDS011;2224;49.814;8.650;2023-04-29T09:28:32;7.40;;;6.27;;
4422;SDS011;2224;49.814;8.650;2023-04-29T09:30:57;6.63;;;5.43;;
4422;SDS011;2224;49.814;8.650;2023-04-29T09:33:23;7.40;;;6.60;;
4422;SDS011;2224;49.814;8.650;2023-04-29T09:35:52;8.37;;;6.33;;
4422;SDS011;2224;49.814;8.650;2023-04-29T09:38:17;6.13;;;5.53;;
4422;SDS011;2224;49.814;8.650;2023-04-29T09:40:43;9.00;;;6.40;;
4422;SDS011;2224;49.814;8.650;2023-04-29T09:43:12;6.83;;;6.13;;
4422;SDS011;2224;49.814;8.650;2023-04-29T09:45:40;7.57;;;6.77;;
4422;SDS011;2224;49.814;8.650;2023-04-29T09:48:09;8.37;;;6.20;;
4422;SDS011;2224;49.814;8.650;2023-04-29T09:50:36;6.87;;;5.63;;
4422;SDS011;2224;49.814;8.650;2023-04-29T09:53:02;6.70;;;6.00;;
4422;SDS011;2224;49.814;8.650;2023-04-29T09:55:28;6.27;;;5.57;;
4422;SDS011;2224;49.814;8.650;2023-04-29T09:57:54;6.30;;;5.23;;
4422;SDS011;2224;49.814;8.650;2023-04-29T10:00:20;6.40;;;5.80;;
4422;SDS011;2224;49.814;8.650;2023-04-29T10:02:46;9.60;;;6.07;;
4422;SDS011;2224;49.814;8.650;2023-04-29T10:05:13;7.90;;;6.20;;
4422;SDS011;2224;49.814;8.650;2023-04-29T10:07:38;7.90;;;7.10;;
4422;SDS011;2224;49.814;8.650;2023-04-29T10:10:04;5.30;;;4.80;;
4422;SDS011;2224;49.814;8.650;2023-04-29T10:12:31;4.83;;;4.30;;
4422;SDS011;2224;49.814;8.650;2023-04-29T10:15:02;6.70;;;6.10;;
4422;SDS011;2224;49.814;8.650;2023-04-29T10:17:43;7.47;;;5.70;;
4422;SDS011;2224;49.814;8.650;2023-04-29T10:20:12;6.13;;;5.53;;
4422;SDS011;2224;49.814;8.650;2023-04-29T10:25:22;9.50;;;6.83;;
4422;SDS011;2224;49.814;8.650;2023-04-29T10:27:48;10.63;;;7.90;;
4422;SDS011;2224;49.814;8.650;2023-04-29T10:30:17;7.77;;;6.03;;
4422;SDS011;2224;49.814;8.650;2023-04-29T10:32:44;8.27;;;7.10;;
4422;SDS011;2224;49.814;8.650;2023-04-29T10:35:11;6.40;;;5.53;;
4422;SDS011;2224;49.814;8.650;2023-04-29T10:37:39;5.83;;;5.17;;
4422;SDS011;2224;49.814;8.650;2023-04-29T10:42:45;5.63;;;5.13;;
4422;SDS011;2224;49.814;8.650;2023-04-29T10:48:29;5.67;;;5.13;;
4422;SDS011;2224;49.814;8.650;2023-04-29T10:53:11;5.03;;;4.53;;
4422;SDS011;2224;49.814;8.650;2023-04-29T10:55:38;4.60;;;4.10;;
4422;SDS011;2224;49.814;8.650;2023-04-29T10:58:03;5.30;;;4.80;;
4422;SDS011;2224;49.814;8.650;2023-04-29T11:00:30;5.83;;;4.10;;
4422;SDS011;2224;49.814;8.650;2023-04-29T11:02:57;4.53;;;3.93;;
4422;SDS011;2224;49.814;8.650;2023-04-29T11:05:33;6.67;;;5.53;;
4422;SDS011;2224;49.814;8.650;2023-04-29T11:10:36;8.93;;;8.03;;
4422;SDS011;2224;49.814;8.650;2023-04-29T11:16:03;8.70;;;7.40;;
4422;SDS011;2224;49.814;8.650;2023-04-29T11:18:35;7.73;;;6.90;;
4422;SDS011;2224;49.814;8.650;2023-04-29T11:23:33;7.40;;;6.40;;
4422;SDS011;2224;49.814;8.650;2023-04-29T11:26:00;8.73;;;7.83;;
4422;SDS011;2224;49.814;8.650;2023-04-29T11:28:26;8.70;;;7.70;;
4422;SDS011;2224;49.814;8.650;2023-04-29T11:30:52;9.27;;;8.10;;
4422;SDS011;2224;49.814;8.650;2023-04-29T11:33:18;6.30;;;5.70;;
4422;SDS011;2224;49.814;8.650;2023-04-29T11:35:44;8.47;;;6.83;;
4422;SDS011;2224;49.814;8.650;2023-04-29T11:38:11;7.53;;;6.43;;
4422;SDS011;2224;49.814;8.650;2023-04-29T11:40:48;9.17;;;7.40;;
4422;SDS011;2224;49.814;8.650;2023-04-29T11:43:21;7.40;;;6.70;;
4422;SDS011;2224;49.814;8.650;2023-04-29T11:45:49;9.77;;;6.43;;
4422;SDS011;2224;49.814;8.650;2023-04-29T11:48:19;9.37;;;6.60;;
4422;SDS011;2224;49.814;8.650;2023-04-29T11:50:45;7.60;;;6.40;;
4422;SDS011;2224;49.814;8.650;2023-04-29T11:53:11;7.27;;;5.47;;
4422;SDS011;2224;49.814;8.650;2023-04-29T11:55:37;7.90;;;6.03;;
4422;SDS011;2224;49.814;8.650;2023-04-29T11:58:05;8.90;;;6.40;;
4422;SDS011;2224;49.814;8.650;2023-04-29T12:00:30;7.00;;;5.97;;
4422;SDS011;2224;49.814;8.650;2023-04-29T12:02:56;6.53;;;5.90;;
4422;SDS011;2224;49.814;8.650;2023-04-29T12:05:24;6.67;;;5.53;;
4422;SDS011;2224;49.814;8.650;2023-04-29T12:07:50;6.37;;;5.60;;
4422;SDS011;2224;49.814;8.650;2023-04-29T12:10:15;7.17;;;6.00;;
4422;SDS011;2224;49.814;8.650;2023-04-29T12:12:40;6.73;;;6.10;;
4422;SDS011;2224;49.814;8.650;2023-04-29T12:15:08;6.33;;;5.63;;
4422;SDS011;2224;49.814;8.650;2023-04-29T12:17:34;9.30;;;5.63;;
4422;SDS011;2224;49.814;8.650;2023-04-29T12:19:59;5.40;;;4.90;;
4422;SDS011;2224;49.814;8.650;2023-04-29T12:22:31;5.17;;;4.67;;
4422;SDS011;2224;49.814;8.650;2023-04-29T12:24:57;5.77;;;5.17;;
4422;SDS011;2224;49.814;8.650;2023-04-29T12:27:22;5.23;;;4.50;;
4422;SDS011;2224;49.814;8.650;2023-04-29T12:29:47;5.10;;;4.60;;
4422;SDS011;2224;49.814;8.650;2023-04-29T12:32:16;4.90;;;4.33;;
4422;SDS011;2224;49.814;8.650;2023-04-29T12:34:44;5.77;;;5.07;;
4422;SDS011;2224;49.814;8.650;2023-04-29T12:37:10;4.90;;;4.50;;
4422;SDS011;2224;49.814;8.650;2023-04-29T12:39:37;5.00;;;4.60;;
4422;SDS011;2224;49.814;8.650;2023-04-29T12:42:02;5.50;;;5.00;;
4422;SDS011;2224;49.814;8.650;2023-04-29T12:44:34;6.83;;;5.20;;
4422;SDS011;2224;49.814;8.650;2023-04-29T12:47:10;5.27;;;4.60;;
4422;SDS011;2224;49.814;8.650;2023-04-29T12:49:37;4.23;;;3.90;;
4422;SDS011;2224;49.814;8.650;2023-04-29T12:52:06;4.80;;;4.37;;
4422;SDS011;2224;49.814;8.650;2023-04-29T12:54:34;4.23;;;3.83;;
4422;SDS011;2224;49.814;8.650;2023-04-29T12:57:04;4.23;;;3.80;;
4422;SDS011;2224;49.814;8.650;2023-04-29T12:59:30;4.63;;;4.23;;
4422;SDS011;2224;49.814;8.650;2023-04-29T13:01:55;3.60;;;3.30;;
4422;SDS011;2224;49.814;8.650;2023-04-29T13:04:21;4.87;;;4.47;;
4422;SDS011;2224;49.814;8.650;2023-04-29T13:06:46;4.40;;;3.83;;
4422;SDS011;2224;49.814;8.650;2023-04-29T13:09:11;4.80;;;4.30;;
4422;SDS011;2224;49.814;8.650;2023-04-29T13:11:37;4.30;;;3.90;;
4422;SDS011;2224;49.814;8.650;2023-04-29T13:14:03;4.70;;;4.20;;
4422;SDS011;2224;49.814;8.650;2023-04-29T13:16:30;5.40;;;3.83;;
4422;SDS011;2224;49.814;8.650;2023-04-29T13:18:57;4.17;;;3.87;;
4422;SDS011;2224;49.814;8.650;2023-04-29T13:21:22;5.17;;;4.30;;
4422;SDS011;2224;49.814;8.650;2023-04-29T13:23:47;4.83;;;4.27;;
4422;SDS011;2224;49.814;8.650;2023-04-29T13:26:13;4.90;;;4.20;;
4422;SDS011;2224;49.814;8.650;2023-04-29T13:28:39;3.97;;;3.57;;
4422;SDS011;2224;49.814;8.650;2023-04-29T13:31:05;5.13;;;4.63;;
4422;SDS011;2224;49.814;8.650;2023-04-29T13:33:30;5.17;;;4.50;;
4422;SDS011;2224;49.814;8.650;2023-04-29T13:35:55;5.70;;;5.10;;
4422;SDS011;2224;49.814;8.650;2023-04-29T13:38:21;3.93;;;3.60;;
4422;SDS011;2224;49.814;8.650;2023-04-29T13:40:46;3.87;;;3.57;;
4422;SDS011;2224;49.814;8.650;2023-04-29T13:43:11;4.20;;;3.80;;
4422;SDS011;2224;49.814;8.650;2023-04-29T13:45:37;4.27;;;3.67;;
4422;SDS011;2224;49.814;8.650;2023-04-29T13:48:02;4.10;;;3.70;;
4422;SDS011;2224;49.814;8.650;2023-04-29T13:50:28;4.13;;;3.70;;
4422;SDS011;2224;49.814;8.650;2023-04-29T13:52:53;4.40;;;4.00;;
4422;SDS011;2224;49.814;8.650;2023-04-29T13:55:18;4.40;;;4.00;;
4422;SDS011;2224;49.814;8.650;2023-04-29T13:57:45;4.67;;;4.23;;
4422;SDS011;2224;49.814;8.650;2023-04-29T14:00:10;5.00;;;3.67;;
4422;SDS011;2224;49.814;8.650;2023-04-29T14:02:36;4.70;;;4.30;;
4422;SDS011;2224;49.814;8.650;2023-04-29T14:05:02;4.93;;;4.20;;
4422;SDS011;2224;49.814;8.650;2023-04-29T14:07:28;4.20;;;3.80;;
4422;SDS011;2224;49.814;8.650;2023-04-29T14:09:53;5.77;;;4.90;;
4422;SDS011;2224;49.814;8.650;2023-04-29T14:12:18;4.50;;;4.10;;
4422;SDS011;2224;49.814;8.650;2023-04-29T14:14:44;4.07;;;3.50;;
4422;SDS011;2224;49.814;8.650;2023-04-29T14:17:09;6.70;;;4.63;;
4422;SDS011;2224;49.814;8.650;2023-04-29T14:19:34;5.83;;;4.20;;
4422;SDS011;2224;49.814;8.650;2023-04-29T14:22:00;5.47;;;4.60;;
4422;SDS011;2224;49.814;8.650;2023-04-29T14:24:25;5.70;;;5.20;;
4422;SDS011;2224;49.814;8.650;2023-04-29T14:26:51;4.27;;;3.87;;
4422;SDS011;2224;49.814;8.650;2023-04-29T14:29:17;5.03;;;4.50;;
4422;SDS011;2224;49.814;8.650;2023-04-29T14:31:42;4.47;;;4.03;;
4422;SDS011;2224;49.814;8.650;2023-04-29T14:34:08;5.20;;;4.70;;
4422;SDS011;2224;49.814;8.650;2023-04-29T14:36:34;4.17;;;3.77;;
4422;SDS011;2224;49.814;8.650;2023-04-29T14:38:59;4.50;;;4.10;;
4422;SDS011;2224;49.814;8.650;2023-04-29T14:41:25;4.73;;;4.33;;
4422;SDS011;2224;49.814;8.650;2023-04-29T14:43:51;4.40;;;4.00;;
4422;SDS011;2224;49.814;8.650;2023-04-29T14:46:16;5.20;;;4.30;;
4422;SDS011;2224;49.814;8.650;2023-04-29T14:48:41;5.13;;;4.63;;
4422;SDS011;2224;49.814;8.650;2023-04-29T14:51:07;4.87;;;4.37;;
4422;SDS011;2224;49.814;8.650;2023-04-29T14:53:32;4.80;;;4.30;;
4422;SDS011;2224;49.814;8.650;2023-04-29T14:55:58;5.57;;;5.00;;
4422;SDS011;2224;49.814;8.650;2023-04-29T14:58:23;5.40;;;4.70;;
4422;SDS011;2224;49.814;8.650;2023-04-29T15:00:48;5.33;;;4.83;;
4422;SDS011;2224;49.814;8.650;2023-04-29T15:03:15;5.07;;;4.57;;
4422;SDS011;2224;49.814;8.650;2023-04-29T15:05:40;6.37;;;4.70;;
4422;SDS011;2224;49.814;8.650;2023-04-29T15:08:06;4.60;;;4.20;;
4422;SDS011;2224;49.814;8.650;2023-04-29T15:10:32;5.40;;;4.90;;
4422;SDS011;2224;49.814;8.650;2023-04-29T15:12:57;4.50;;;4.10;;
4422;SDS011;2224;49.814;8.650;2023-04-29T15:15:23;4.30;;;3.90;;
4422;SDS011;2224;49.814;8.650;2023-04-29T15:17:48;4.80;;;4.37;;
4422;SDS011;2224;49.814;8.650;2023-04-29T15:20:14;4.70;;;3.60;;
4422;SDS011;2224;49.814;8.650;2023-04-29T15:22:39;4.53;;;4.13;;
4422;SDS011;2224;49.814;8.650;2023-04-29T15:25:05;3.63;;;3.33;;
4422;SDS011;2224;49.814;8.650;2023-04-29T15:27:32;4.63;;;3.47;;
4422;SDS011;2224;49.814;8.650;2023-04-29T15:29:58;5.67;;;2.93;;
4422;SDS011;2224;49.814;8.650;2023-04-29T15:32:23;3.87;;;2.93;;
4422;SDS011;2224;49.814;8.650;2023-04-29T15:34:55;3.83;;;3.30;;
4422;SDS011;2224;49.814;8.650;2023-04-29T15:37:20;3.70;;;3.40;;